Time;durP1;ratioP1;P1;durP2;ratioP2;P2;SDS_P1;SDS_P2;PMS_P1;PMS_P2;Temp;Humidity;BMP_temperature;BMP_pressure;BME280_temperature;BME280_humidity;BME280_pressure;Samples;Min_cycle;Max_cycle;Signal;HPM_P1;HPM_P2
2022/07/05 00:01:14;;;;;;;1.20;1.10;;;;;;;;;;5074464;28;20279;-84
2022/07/05 00:03:41;;;;;;;1.50;1.40;;;;;;;;;;5074083;28;20232;-84
2022/07/05 00:06:08;;;;;;;1.48;1.17;;;;;;;;;;5074718;28;20206;-84
2022/07/05 00:08:35;;;;;;;1.30;1.20;;;;;;;;;;5074276;28;20236;-84
2022/07/05 00:11:02;;;;;;;1.10;0.90;;;;;;;;;;5074496;28;20205;-84
2022/07/05 00:13:29;;;;;;;1.30;1.20;;;;;;;;;;5074047;28;20244;-84
2022/07/05 00:15:56;;;;;;;0.67;0.67;;;;;;;;;;5078344;28;20292;-84
2022/07/05 00:18:25;;;;;;;1.10;1.00;;;;;;;;;;5075673;28;20596;-84
2022/07/05 00:20:52;;;;;;;1.00;1.00;;;;;;;;;;5074294;28;20254;-84
2022/07/05 00:23:19;;;;;;;0.80;0.80;;;;;;;;;;5076040;28;20225;-84
2022/07/05 00:25:46;;;;;;;1.20;1.10;;;;;;;;;;5093080;28;20208;-84
2022/07/05 00:28:15;;;;;;;2.37;1.17;;;;;;;;;;5097558;28;20228;-84
2022/07/05 00:30:42;;;;;;;1.93;1.40;;;;;;;;;;5097262;28;20207;-85
2022/07/05 00:33:09;;;;;;;1.73;1.30;;;;;;;;;;5094542;28;20236;-84
2022/07/05 00:35:37;;;;;;;1.17;1.07;;;;;;;;;;5079881;28;20561;-84
2022/07/05 00:38:04;;;;;;;0.90;0.90;;;;;;;;;;5073946;28;20205;-84
2022/07/05 00:40:31;;;;;;;1.50;1.03;;;;;;;;;;5073503;28;20236;-84
2022/07/05 00:42:58;;;;;;;1.30;1.10;;;;;;;;;;5073649;28;20233;-84
2022/07/05 00:45:25;;;;;;;1.10;1.10;;;;;;;;;;5073176;28;20244;-84
2022/07/05 00:47:52;;;;;;;1.70;0.90;;;;;;;;;;5073756;28;20206;-84
2022/07/05 00:50:19;;;;;;;0.90;0.90;;;;;;;;;;5073176;28;20234;-84
2022/07/05 00:52:48;;;;;;;1.60;1.40;;;;;;;;;;5073485;28;20237;-84
2022/07/05 00:55:16;;;;;;;1.13;1.03;;;;;;;;;;5073025;28;20584;-84
2022/07/05 00:57:44;;;;;;;1.10;1.00;;;;;;;;;;5067125;28;20340;-84
2022/07/05 01:00:11;;;;;;;0.93;0.93;;;;;;;;;;5072745;28;20589;-84
2022/07/05 01:02:38;;;;;;;1.30;1.20;;;;;;;;;;5073062;28;20221;-84
2022/07/05 01:05:06;;;;;;;1.30;1.20;;;;;;;;;;5070329;28;20240;-84
2022/07/05 01:07:33;;;;;;;4.53;1.33;;;;;;;;;;5069194;28;20666;-84
2022/07/05 01:10:01;;;;;;;1.53;1.43;;;;;;;;;;5072652;28;20967;-84
2022/07/05 01:12:28;;;;;;;1.10;1.10;;;;;;;;;;5072779;28;20233;-84
2022/07/05 01:14:57;;;;;;;1.27;1.17;;;;;;;;;;5072720;28;20237;-84
2022/07/05 01:17:24;;;;;;;1.30;1.30;;;;;;;;;;5073027;28;20213;-84
2022/07/05 01:19:51;;;;;;;1.30;1.20;;;;;;;;;;5072695;28;20256;-84
2022/07/05 01:22:19;;;;;;;2.17;1.00;;;;;;;;;;5073137;28;20256;-84
2022/07/05 01:24:48;;;;;;;0.93;0.93;;;;;;;;;;5071622;28;20245;-84
2022/07/05 01:27:15;;;;;;;2.43;0.93;;;;;;;;;;5073347;28;20209;-84
2022/07/05 01:29:43;;;;;;;1.77;1.37;;;;;;;;;;5072231;28;20233;-84
2022/07/05 01:32:10;;;;;;;1.20;1.20;;;;;;;;;;5073219;28;20267;-85
2022/07/05 01:34:40;;;;;;;1.23;1.20;;;;;;;;;;5072406;28;20260;-84
2022/07/05 01:37:08;;;;;;;1.80;1.13;;;;;;;;;;5072742;28;20206;-84
2022/07/05 01:39:35;;;;;;;1.23;1.20;;;;;;;;;;5072283;28;20237;-84
2022/07/05 01:42:04;;;;;;;1.30;1.20;;;;;;;;;;5072951;28;20225;-84
2022/07/05 01:44:32;;;;;;;1.30;1.20;;;;;;;;;;5072543;28;20712;-84
2022/07/05 01:47:01;;;;;;;1.30;1.30;;;;;;;;;;5073135;28;20279;-84
2022/07/05 01:49:29;;;;;;;1.07;1.07;;;;;;;;;;5072871;28;20319;-84
2022/07/05 01:51:59;;;;;;;1.10;1.10;;;;;;;;;;5072625;28;20233;-84
2022/07/05 01:54:26;;;;;;;1.37;1.20;;;;;;;;;;5072435;28;20245;-84
2022/07/05 01:56:53;;;;;;;2.13;1.30;;;;;;;;;;5072417;28;20205;-84
2022/07/05 01:59:21;;;;;;;1.13;1.13;;;;;;;;;;5090372;28;20216;-84
2022/07/05 02:01:48;;;;;;;1.43;1.20;;;;;;;;;;5088927;28;20205;-84
2022/07/05 02:04:16;;;;;;;1.17;1.17;;;;;;;;;;5074180;28;20229;-83
2022/07/05 02:06:45;;;;;;;1.07;1.07;;;;;;;;;;5072447;28;20205;-84
2022/07/05 02:09:12;;;;;;;1.63;1.53;;;;;;;;;;5072136;28;20236;-84
2022/07/05 02:11:39;;;;;;;2.00;1.37;;;;;;;;;;5072432;28;20228;-84
2022/07/05 02:14:06;;;;;;;1.10;1.10;;;;;;;;;;5072253;28;20248;-84
2022/07/05 02:16:35;;;;;;;1.07;1.07;;;;;;;;;;5072311;28;20205;-84
2022/07/05 02:19:02;;;;;;;1.97;1.40;;;;;;;;;;5072049;28;20237;-84
2022/07/05 02:21:29;;;;;;;1.43;1.30;;;;;;;;;;5072511;28;20222;-84
2022/07/05 02:23:56;;;;;;;1.27;1.17;;;;;;;;;;5087627;28;20240;-84
2022/07/05 02:26:23;;;;;;;2.07;1.23;;;;;;;;;;5072526;28;20209;-84
2022/07/05 02:28:50;;;;;;;1.67;1.20;;;;;;;;;;5072247;28;20256;-84
2022/07/05 02:31:19;;;;;;;1.40;1.40;;;;;;;;;;5072580;28;20205;-84
2022/07/05 02:33:47;;;;;;;4.13;1.27;;;;;;;;;;5071665;28;20283;-84
2022/07/05 02:36:15;;;;;;;1.30;1.20;;;;;;;;;;5073392;28;20232;-84
2022/07/05 02:38:42;;;;;;;1.50;1.40;;;;;;;;;;5075371;28;20225;-84
2022/07/05 02:41:09;;;;;;;1.60;1.50;;;;;;;;;;5075927;28;20206;-84
2022/07/05 02:43:37;;;;;;;1.57;1.27;;;;;;;;;;5075525;28;20229;-84
2022/07/05 02:46:04;;;;;;;1.63;1.40;;;;;;;;;;5076298;28;20576;-84
2022/07/05 02:48:31;;;;;;;1.07;1.07;;;;;;;;;;5075579;28;20229;-84
2022/07/05 02:51:00;;;;;;;1.47;1.37;;;;;;;;;;5076528;28;20217;-84
2022/07/05 02:53:27;;;;;;;2.43;1.37;;;;;;;;;;5079777;28;20233;-84
2022/07/05 02:55:54;;;;;;;2.27;1.40;;;;;;;;;;5081434;28;20201;-83
2022/07/05 02:58:21;;;;;;;1.73;1.50;;;;;;;;;;5077836;28;20205;-84
2022/07/05 03:00:49;;;;;;;4.87;1.40;;;;;;;;;;5077336;28;20202;-83
2022/07/05 03:03:16;;;;;;;1.20;1.20;;;;;;;;;;5077154;28;20236;-84
2022/07/05 03:05:43;;;;;;;1.33;1.23;;;;;;;;;;5077240;28;20224;-84
2022/07/05 03:08:11;;;;;;;1.40;1.30;;;;;;;;;;5076200;28;20685;-83
2022/07/05 03:10:39;;;;;;;1.60;1.50;;;;;;;;;;5076682;28;20215;-84
2022/07/05 03:13:06;;;;;;;1.23;1.23;;;;;;;;;;5100089;22;20237;-82
2022/07/05 03:15:33;;;;;;;1.57;1.47;;;;;;;;;;5077935;28;20205;-81
2022/07/05 03:18:00;;;;;;;2.83;1.50;;;;;;;;;;5077684;28;20201;-81
2022/07/05 03:20:28;;;;;;;1.60;1.50;;;;;;;;;;5077863;28;20225;-81
2022/07/05 03:22:55;;;;;;;1.60;1.50;;;;;;;;;;5077859;28;20217;-81
2022/07/05 03:25:23;;;;;;;1.40;1.30;;;;;;;;;;5077209;28;20284;-82
2022/07/05 03:27:50;;;;;;;2.47;1.60;;;;;;;;;;5078021;28;20213;-81
2022/07/05 03:30:17;;;;;;;1.77;1.67;;;;;;;;;;5077333;28;20286;-81
2022/07/05 03:32:45;;;;;;;1.60;1.50;;;;;;;;;;5078386;28;20234;-81
2022/07/05 03:35:12;;;;;;;4.27;1.47;;;;;;;;;;5077134;28;20237;-82
2022/07/05 03:37:39;;;;;;;1.50;1.43;;;;;;;;;;5078170;28;20214;-81
2022/07/05 03:40:06;;;;;;;1.87;1.50;;;;;;;;;;5077363;28;20233;-81
2022/07/05 03:42:35;;;;;;;1.00;1.00;;;;;;;;;;5077925;28;20276;-81
2022/07/05 03:45:02;;;;;;;2.37;1.70;;;;;;;;;;5076886;28;20225;-82
2022/07/05 03:47:29;;;;;;;2.93;1.63;;;;;;;;;;5076603;28;20695;-82
2022/07/05 03:49:56;;;;;;;1.50;1.30;;;;;;;;;;5077081;28;20244;-81
2022/07/05 03:52:23;;;;;;;1.53;1.37;;;;;;;;;;5079156;28;20229;-81
2022/07/05 03:54:50;;;;;;;7.47;1.57;;;;;;;;;;5085154;28;20794;-81
2022/07/05 03:57:17;;;;;;;1.50;1.40;;;;;;;;;;5075060;28;20212;-81
2022/07/05 03:59:46;;;;;;;1.80;1.70;;;;;;;;;;5074402;28;20237;-81
2022/07/05 04:02:13;;;;;;;2.03;1.40;;;;;;;;;;5074743;28;20613;-81
2022/07/05 04:04:40;;;;;;;1.47;1.37;;;;;;;;;;5074317;28;20244;-81
2022/07/05 04:07:07;;;;;;;1.47;1.23;;;;;;;;;;5074861;28;20216;-81
2022/07/05 04:09:34;;;;;;;1.50;1.40;;;;;;;;;;5073940;28;20233;-82
2022/07/05 04:12:01;;;;;;;1.80;1.70;;;;;;;;;;5074670;28;20244;-81
2022/07/05 04:14:28;;;;;;;1.53;1.43;;;;;;;;;;5073997;28;20704;-81
2022/07/05 04:16:57;;;;;;;1.80;1.70;;;;;;;;;;5074956;28;20605;-81
2022/07/05 04:19:24;;;;;;;1.70;1.60;;;;;;;;;;5074494;28;20236;-81
2022/07/05 04:21:51;;;;;;;1.60;1.50;;;;;;;;;;5074583;28;20221;-81
2022/07/05 04:24:18;;;;;;;2.40;1.70;;;;;;;;;;5074565;28;20225;-81
2022/07/05 04:26:45;;;;;;;1.57;1.47;;;;;;;;;;5074927;28;20212;-82
2022/07/05 04:29:12;;;;;;;1.83;1.70;;;;;;;;;;5074104;28;20312;-81
2022/07/05 04:31:39;;;;;;;3.53;1.50;;;;;;;;;;5075267;28;20230;-81
2022/07/05 04:34:07;;;;;;;1.80;1.70;;;;;;;;;;5074155;28;20236;-81
2022/07/05 04:36:36;;;;;;;1.70;1.60;;;;;;;;;;5075376;28;20210;-81
2022/07/05 04:39:04;;;;;;;1.70;1.60;;;;;;;;;;5074968;28;20299;-81
2022/07/05 04:41:31;;;;;;;1.83;1.73;;;;;;;;;;5074883;28;20661;-81
2022/07/05 04:43:58;;;;;;;2.30;1.93;;;;;;;;;;5077761;28;20237;-81
2022/07/05 04:46:25;;;;;;;1.83;1.70;;;;;;;;;;5082072;28;20205;-83
2022/07/05 04:48:52;;;;;;;1.80;1.70;;;;;;;;;;5080454;28;20279;-81
2022/07/05 04:51:21;;;;;;;2.20;2.00;;;;;;;;;;5081988;28;20209;-81
2022/07/05 04:53:48;;;;;;;1.90;1.80;;;;;;;;;;5081131;28;20255;-81
2022/07/05 04:56:15;;;;;;;5.63;2.00;;;;;;;;;;5082813;28;20207;-81
2022/07/05 04:58:42;;;;;;;2.10;1.90;;;;;;;;;;5080586;28;20229;-81
2022/07/05 05:01:09;;;;;;;1.77;1.67;;;;;;;;;;5083074;28;20209;-82
2022/07/05 05:03:36;;;;;;;1.90;1.80;;;;;;;;;;5081609;28;20233;-82
2022/07/05 05:06:04;;;;;;;2.00;1.90;;;;;;;;;;5082702;28;20211;-81
2022/07/05 05:08:32;;;;;;;2.27;2.00;;;;;;;;;;5082103;28;20240;-81
2022/07/05 05:10:59;;;;;;;2.00;1.90;;;;;;;;;;5082037;28;20217;-80
2022/07/05 05:13:26;;;;;;;2.07;1.97;;;;;;;;;;5082615;28;20232;-81
2022/07/05 05:15:53;;;;;;;2.03;1.83;;;;;;;;;;5080897;28;20596;-81
2022/07/05 05:18:24;;;;;;;2.00;1.90;;;;;;;;;;5081283;28;20208;-81
2022/07/05 05:20:51;;;;;;;2.17;2.00;;;;;;;;;;5085668;28;20258;-80
2022/07/05 05:23:18;;;;;;;1.97;1.87;;;;;;;;;;5082996;28;20233;-81
2022/07/05 05:25:46;;;;;;;2.20;2.00;;;;;;;;;;5083255;28;20202;-80
2022/07/05 05:28:13;;;;;;;3.57;1.97;;;;;;;;;;5082984;28;20269;-81
2022/07/05 05:30:40;;;;;;;3.93;2.07;;;;;;;;;;5082341;28;20212;-80
2022/07/05 05:33:07;;;;;;;2.33;2.13;;;;;;;;;;5081573;28;20236;-81
2022/07/05 05:35:35;;;;;;;2.03;1.90;;;;;;;;;;5083322;28;20236;-81
2022/07/05 05:38:02;;;;;;;2.70;2.07;;;;;;;;;;5082562;28;20201;-81
2022/07/05 05:40:29;;;;;;;2.03;1.93;;;;;;;;;;5082907;28;20209;-81
2022/07/05 05:42:57;;;;;;;1.90;1.80;;;;;;;;;;5083644;28;20247;-81
2022/07/05 05:45:24;;;;;;;4.27;1.97;;;;;;;;;;5082839;28;20701;-81
2022/07/05 05:47:52;;;;;;;2.43;2.10;;;;;;;;;;5082760;28;20216;-81
2022/07/05 05:50:20;;;;;;;2.87;1.80;;;;;;;;;;5081967;28;20244;-80
2022/07/05 05:52:47;;;;;;;2.40;2.20;;;;;;;;;;5081232;28;20225;-80
2022/07/05 05:55:14;;;;;;;3.53;2.03;;;;;;;;;;5081140;28;20248;-80
2022/07/05 05:57:41;;;;;;;3.57;1.93;;;;;;;;;;5080164;28;20208;-80
2022/07/05 06:00:10;;;;;;;2.20;1.80;;;;;;;;;;5080095;28;20244;-80
2022/07/05 06:02:37;;;;;;;2.03;1.90;;;;;;;;;;5080160;28;20232;-80
2022/07/05 06:05:05;;;;;;;2.73;1.77;;;;;;;;;;5078578;28;20240;-80
2022/07/05 06:07:32;;;;;;;4.07;1.73;;;;;;;;;;5079368;28;20205;-81
2022/07/05 06:09:59;;;;;;;1.57;1.57;;;;;;;;;;5080805;28;20229;-81
2022/07/05 06:12:26;;;;;;;1.80;1.70;;;;;;;;;;5085903;28;20236;-80
2022/07/05 06:14:53;;;;;;;2.63;1.80;;;;;;;;;;5082790;28;20715;-81
2022/07/05 06:17:21;;;;;;;4.10;1.90;;;;;;;;;;5084274;28;20209;-81
2022/07/05 06:19:48;;;;;;;1.57;1.50;;;;;;;;;;5083260;28;20240;-80
2022/07/05 06:22:15;;;;;;;3.13;1.70;;;;;;;;;;5083623;28;20240;-81
2022/07/05 06:24:42;;;;;;;2.10;1.53;;;;;;;;;;5080111;28;20225;-81
2022/07/05 06:27:10;;;;;;;1.70;1.33;;;;;;;;;;5078264;28;20209;-81
2022/07/05 06:29:37;;;;;;;1.20;1.10;;;;;;;;;;5078680;28;20243;-81
2022/07/05 06:32:04;;;;;;;2.47;1.40;;;;;;;;;;5078573;28;20240;-81
2022/07/05 06:34:32;;;;;;;2.25;1.10;;;;;;;;;;5078105;28;20236;-81
2022/07/05 06:36:59;;;;;;;1.70;1.02;;;;;;;;;;5080454;28;20212;-81
2022/07/05 06:39:26;;;;;;;1.40;1.30;;;;;;;;;;5086922;28;20229;-81
2022/07/05 06:41:53;;;;;;;1.50;1.40;;;;;;;;;;5080256;28;20225;-81
2022/07/05 06:44:20;;;;;;;1.55;1.20;;;;;;;;;;5079481;28;20237;-81
2022/07/05 06:46:47;;;;;;;2.40;1.27;;;;;;;;;;5079528;28;20642;-81
2022/07/05 06:49:14;;;;;;;1.90;1.30;;;;;;;;;;5079251;28;20228;-81
2022/07/05 06:51:43;;;;;;;1.75;1.10;;;;;;;;;;5079941;28;20225;-81
2022/07/05 06:54:10;;;;;;;1.85;1.25;;;;;;;;;;5078597;28;20233;-81
2022/07/05 06:56:37;;;;;;;1.35;1.08;;;;;;;;;;5079095;28;20209;-81
2022/07/05 06:59:04;;;;;;;2.40;1.50;;;;;;;;;;5078382;28;20233;-81
2022/07/05 07:01:31;;;;;;;1.25;1.15;;;;;;;;;;5078924;28;20205;-82
2022/07/05 07:03:59;;;;;;;3.05;1.52;;;;;;;;;;5071096;28;20773;-81
2022/07/05 07:06:26;;;;;;;1.23;1.13;;;;;;;;;;5060485;28;20681;-82
2022/07/05 07:11:39;;;;;;;1.70;1.33;;;;;;;;;;5058479;28;20231;-82
2022/07/05 07:14:06;;;;;;;1.42;1.10;;;;;;;;;;5058219;28;20230;-82
2022/07/05 07:16:33;;;;;;;3.08;1.27;;;;;;;;;;5058707;28;20233;-81
2022/07/05 07:19:00;;;;;;;2.35;1.30;;;;;;;;;;5057772;28;20261;-82
2022/07/05 07:21:27;;;;;;;1.30;1.20;;;;;;;;;;5058954;28;20210;-82
2022/07/05 07:23:56;;;;;;;2.80;1.33;;;;;;;;;;5058216;28;20233;-82
2022/07/05 07:26:23;;;;;;;2.35;1.42;;;;;;;;;;5060193;28;20209;-82
2022/07/05 07:28:50;;;;;;;1.70;1.30;;;;;;;;;;5057322;28;20238;-82
2022/07/05 07:31:17;;;;;;;1.45;1.35;;;;;;;;;;5057995;28;20224;-82
2022/07/05 07:33:44;;;;;;;1.05;1.00;;;;;;;;;;5057227;28;20226;-82
2022/07/05 07:36:11;;;;;;;2.88;1.25;;;;;;;;;;5057608;28;20229;-82
2022/07/05 07:38:38;;;;;;;5.25;1.10;;;;;;;;;;5057759;28;20233;-82
2022/07/05 07:41:06;;;;;;;3.70;1.33;;;;;;;;;;5058010;28;20206;-82
2022/07/05 07:43:33;;;;;;;1.42;1.33;;;;;;;;;;5057434;28;20237;-82
2022/07/05 07:46:00;;;;;;;2.05;1.10;;;;;;;;;;5058197;28;20206;-83
2022/07/05 07:48:28;;;;;;;2.90;1.42;;;;;;;;;;5057970;28;20601;-82
2022/07/05 07:50:55;;;;;;;2.70;1.17;;;;;;;;;;5058058;28;20692;-82
2022/07/05 07:53:22;;;;;;;2.00;0.82;;;;;;;;;;5056842;28;20241;-82
2022/07/05 07:55:49;;;;;;;2.58;1.40;;;;;;;;;;5059842;28;20237;-82
2022/07/05 07:58:18;;;;;;;2.10;0.90;;;;;;;;;;5057893;28;20194;-82
2022/07/05 08:00:45;;;;;;;2.53;1.10;;;;;;;;;;5057609;28;20663;-82
2022/07/05 08:03:12;;;;;;;1.58;1.10;;;;;;;;;;5057450;28;20232;-82
2022/07/05 08:05:39;;;;;;;1.27;1.10;;;;;;;;;;5073204;28;20189;-82
2022/07/05 08:08:06;;;;;;;0.85;0.82;;;;;;;;;;5078558;28;20186;-83
2022/07/05 08:10:34;;;;;;;1.35;1.00;;;;;;;;;;5067090;28;20488;-82
2022/07/05 08:13:01;;;;;;;3.63;0.90;;;;;;;;;;5056181;28;20225;-83
2022/07/05 08:15:30;;;;;;;1.20;0.90;;;;;;;;;;5057089;28;20678;-82
2022/07/05 08:23:27;;;;;;;3.85;1.00;;;;;;;;;;5072316;28;20237;-83
2022/07/05 08:25:54;;;;;;;1.17;0.88;;;;;;;;;;5056255;28;20205;-82
2022/07/05 08:28:21;;;;;;;1.05;0.95;;;;;;;;;;5056580;28;20217;-82
2022/07/05 08:30:49;;;;;;;2.83;1.15;;;;;;;;;;5057125;28;20210;-83
2022/07/05 08:33:16;;;;;;;2.92;1.13;;;;;;;;;;5057408;28;20479;-83
2022/07/05 08:35:43;;;;;;;1.10;1.00;;;;;;;;;;5060781;28;20760;-83
2022/07/05 08:38:12;;;;;;;1.38;0.88;;;;;;;;;;5059542;28;20217;-82
2022/07/05 08:40:41;;;;;;;1.58;0.93;;;;;;;;;;5055816;28;20241;-83
2022/07/05 08:43:09;;;;;;;0.75;0.70;;;;;;;;;;5054675;28;20230;-83
2022/07/05 08:45:36;;;;;;;1.15;1.00;;;;;;;;;;5055300;28;20207;-82
2022/07/05 08:48:06;;;;;;;1.73;1.17;;;;;;;;;;5066325;28;20203;-82
2022/07/05 08:50:35;;;;;;;2.15;0.88;;;;;;;;;;5055687;28;20297;-83
2022/07/05 08:53:02;;;;;;;2.78;0.73;;;;;;;;;;5053400;28;20241;-83
2022/07/05 08:55:29;;;;;;;1.52;1.00;;;;;;;;;;5053631;28;20256;-81
2022/07/05 08:57:56;;;;;;;2.38;1.00;;;;;;;;;;5053686;28;20206;-81
2022/07/05 09:00:24;;;;;;;1.42;1.10;;;;;;;;;;5057000;28;20230;-81
2022/07/05 09:02:51;;;;;;;1.42;1.00;;;;;;;;;;5046187;28;20238;-81
2022/07/05 09:05:21;;;;;;;3.25;1.33;;;;;;;;;;5052758;28;20241;-81
2022/07/05 09:07:53;;;;;;;1.33;0.70;;;;;;;;;;5053880;28;20241;-81
2022/07/05 09:10:21;;;;;;;1.63;0.95;;;;;;;;;;5053524;28;20248;-81
2022/07/05 09:12:48;;;;;;;1.45;0.77;;;;;;;;;;5068595;22;20234;-85
2022/07/05 09:15:15;;;;;;;2.50;0.80;;;;;;;;;;5026866;28;20231;-85
2022/07/05 09:17:45;;;;;;;2.75;1.10;;;;;;;;;;5013145;28;20214;-85
2022/07/05 09:20:13;;;;;;;1.38;0.93;;;;;;;;;;5012443;28;20647;-86
2022/07/05 09:22:45;;;;;;;1.00;0.57;;;;;;;;;;5013526;28;20235;-85
2022/07/05 09:25:16;;;;;;;1.77;0.90;;;;;;;;;;5012683;28;20246;-85
2022/07/05 09:27:48;;;;;;;1.83;0.90;;;;;;;;;;5013010;28;20203;-85
2022/07/05 09:30:24;;;;;;;1.60;0.80;;;;;;;;;;5012723;28;20318;-85
2022/07/05 09:33:01;;;;;;;2.05;1.10;;;;;;;;;;5013072;28;20710;-85
2022/07/05 09:35:28;;;;;;;0.55;0.55;;;;;;;;;;5012663;28;20307;-85
2022/07/05 09:37:56;;;;;;;2.15;0.85;;;;;;;;;;5012506;28;20621;-85
2022/07/05 09:40:23;;;;;;;1.48;0.77;;;;;;;;;;5012560;28;20265;-85
2022/07/05 09:42:50;;;;;;;1.85;0.90;;;;;;;;;;5012943;28;20254;-85
2022/07/05 09:45:24;;;;;;;0.82;0.80;;;;;;;;;;5011607;28;20239;-85
2022/07/05 09:47:51;;;;;;;2.65;0.70;;;;;;;;;;5012784;28;20223;-84
2022/07/05 09:50:33;;;;;;;1.85;0.77;;;;;;;;;;5012296;28;20281;-84
2022/07/05 09:53:01;;;;;;;0.68;0.68;;;;;;;;;;5012788;28;20231;-83
2022/07/05 09:55:28;;;;;;;0.90;0.55;;;;;;;;;;5012437;28;20245;-84
2022/07/05 09:57:55;;;;;;;1.42;0.80;;;;;;;;;;5013153;28;20230;-84
2022/07/05 10:00:23;;;;;;;2.60;0.98;;;;;;;;;;5012982;28;20239;-83
2022/07/05 10:02:51;;;;;;;1.00;0.90;;;;;;;;;;5013449;28;20227;-84
2022/07/05 10:05:19;;;;;;;0.70;0.70;;;;;;;;;;5012479;28;20610;-84
2022/07/05 10:07:52;;;;;;;3.22;0.77;;;;;;;;;;5016120;28;20688;-85
2022/07/05 10:10:23;;;;;;;1.15;0.90;;;;;;;;;;5026820;28;20226;-84
2022/07/05 10:12:50;;;;;;;0.95;0.65;;;;;;;;;;5014610;28;20275;-84
2022/07/05 10:15:18;;;;;;;2.80;0.90;;;;;;;;;;5013343;28;20231;-84
2022/07/05 10:17:46;;;;;;;1.67;0.90;;;;;;;;;;5013589;28;20238;-85
2022/07/05 10:20:26;;;;;;;0.65;0.63;;;;;;;;;;5013616;28;20241;-83
2022/07/05 10:22:57;;;;;;;1.00;0.73;;;;;;;;;;5020487;28;20258;-83
2022/07/05 10:25:28;;;;;;;0.75;0.65;;;;;;;;;;5020987;28;20246;-83
2022/07/05 10:27:56;;;;;;;1.75;0.98;;;;;;;;;;5019803;28;20203;-83
2022/07/05 10:30:23;;;;;;;1.38;0.80;;;;;;;;;;5022361;28;20249;-83
2022/07/05 10:32:50;;;;;;;1.52;0.98;;;;;;;;;;5013085;28;20227;-84
2022/07/05 10:35:18;;;;;;;2.35;1.00;;;;;;;;;;5011904;28;20235;-84
2022/07/05 10:37:46;;;;;;;3.70;0.80;;;;;;;;;;5012131;28;20218;-84
2022/07/05 10:40:13;;;;;;;1.08;0.80;;;;;;;;;;5011344;28;20235;-84
2022/07/05 10:42:43;;;;;;;1.25;1.15;;;;;;;;;;5011669;28;20301;-85
2022/07/05 10:45:29;;;;;;;2.28;0.80;;;;;;;;;;5011299;28;20238;-84
2022/07/05 10:48:16;;;;;;;1.20;0.80;;;;;;;;;;5011346;28;20679;-84
2022/07/05 10:50:50;;;;;;;1.63;0.98;;;;;;;;;;5011664;28;20730;-84
2022/07/05 10:53:18;;;;;;;3.08;0.82;;;;;;;;;;5012330;28;20234;-84
2022/07/05 10:55:53;;;;;;;0.95;0.82;;;;;;;;;;5013065;28;20227;-84
2022/07/05 10:58:27;;;;;;;2.45;0.93;;;;;;;;;;5015524;28;20210;-84
2022/07/05 11:01:13;;;;;;;1.75;0.70;;;;;;;;;;5025855;28;20659;-84
2022/07/05 11:03:42;;;;;;;1.80;0.82;;;;;;;;;;5034253;28;20234;-84
2022/07/05 11:06:10;;;;;;;1.35;0.88;;;;;;;;;;5035130;28;20206;-84
2022/07/05 11:08:52;;;;;;;1.05;0.90;;;;;;;;;;5034934;28;20237;-84
2022/07/05 11:11:24;;;;;;;1.75;0.90;;;;;;;;;;5034874;28;20206;-84
2022/07/05 11:13:54;;;;;;;2.30;1.10;;;;;;;;;;5033949;28;20234;-84
2022/07/05 11:16:21;;;;;;;1.48;1.17;;;;;;;;;;5034982;28;20231;-84
2022/07/05 11:18:50;;;;;;;1.23;1.13;;;;;;;;;;5034146;28;20265;-84
2022/07/05 11:21:18;;;;;;;1.33;1.10;;;;;;;;;;5034930;28;20206;-84
2022/07/05 11:23:45;;;;;;;1.48;1.02;;;;;;;;;;5033910;28;20238;-85
2022/07/05 11:26:12;;;;;;;1.70;1.08;;;;;;;;;;5034884;28;20202;-85
2022/07/05 11:28:43;;;;;;;1.45;0.80;;;;;;;;;;5034350;28;20230;-85
2022/07/05 11:31:12;;;;;;;2.60;1.00;;;;;;;;;;5034730;28;20632;-85
2022/07/05 11:33:42;;;;;;;1.52;1.08;;;;;;;;;;5033569;28;20237;-85
2022/07/05 11:36:21;;;;;;;2.38;0.70;;;;;;;;;;5034730;28;20634;-85
2022/07/05 11:39:08;;;;;;;2.60;0.80;;;;;;;;;;5034307;28;20268;-86
2022/07/05 11:41:37;;;;;;;1.00;0.90;;;;;;;;;;5034431;28;20209;-85
2022/07/05 11:44:05;;;;;;;0.82;0.80;;;;;;;;;;5033828;28;20238;-85
2022/07/05 11:46:34;;;;;;;1.88;0.80;;;;;;;;;;5034185;28;20693;-86
2022/07/05 11:49:01;;;;;;;1.92;1.10;;;;;;;;;;5034135;28;20238;-86
2022/07/05 11:51:28;;;;;;;2.65;0.90;;;;;;;;;;5034096;28;20670;-86
2022/07/05 11:53:55;;;;;;;1.85;0.50;;;;;;;;;;5033376;28;20698;-85
2022/07/05 11:56:22;;;;;;;0.98;0.73;;;;;;;;;;5033961;28;20237;-86
2022/07/05 11:58:49;;;;;;;0.70;0.70;;;;;;;;;;5033530;28;20237;-86
2022/07/05 12:01:16;;;;;;;2.05;0.65;;;;;;;;;;5020689;28;20206;-86
2022/07/05 12:03:55;;;;;;;1.00;0.80;;;;;;;;;;5013467;28;20239;-86
2022/07/05 12:06:23;;;;;;;0.85;0.60;;;;;;;;;;5014186;28;20206;-85
2022/07/05 12:09:02;;;;;;;2.63;0.77;;;;;;;;;;5012833;28;20658;-86
2022/07/05 12:14:20;;;;;;;3.78;0.90;;;;;;;;;;5013206;28;20285;-85
2022/07/05 12:16:47;;;;;;;2.47;1.48;;;;;;;;;;5013902;28;20596;-85
2022/07/05 12:19:25;;;;;;;0.73;0.73;;;;;;;;;;5013690;28;20237;-85
2022/07/05 12:21:53;;;;;;;3.05;0.90;;;;;;;;;;5013965;28;20233;-86
2022/07/05 12:24:20;;;;;;;1.27;0.80;;;;;;;;;;5012958;28;20614;-85
2022/07/05 12:26:48;;;;;;;1.00;0.82;;;;;;;;;;5013710;28;20214;-85
2022/07/05 12:29:16;;;;;;;1.42;1.00;;;;;;;;;;5013192;28;20243;-85
2022/07/05 12:32:00;;;;;;;2.72;1.10;;;;;;;;;;5013844;28;20261;-85
2022/07/05 12:34:29;;;;;;;1.42;0.80;;;;;;;;;;5012994;28;20230;-86
2022/07/05 12:36:57;;;;;;;1.55;0.90;;;;;;;;;;5014090;28;20239;-85
2022/07/05 12:39:24;;;;;;;2.22;0.90;;;;;;;;;;5013132;28;20714;-85
2022/07/05 12:41:51;;;;;;;2.50;0.60;;;;;;;;;;5013275;28;20214;-86
2022/07/05 12:44:20;;;;;;;1.13;0.63;;;;;;;;;;5012657;28;20235;-86
2022/07/05 12:46:49;;;;;;;0.88;0.70;;;;;;;;;;5013069;28;20290;-86
2022/07/05 12:49:16;;;;;;;1.35;0.90;;;;;;;;;;5013187;28;20317;-86
2022/07/05 12:51:45;;;;;;;1.25;0.70;;;;;;;;;;5013555;28;20586;-86
2022/07/05 12:59:59;;;;;;;3.22;0.98;;;;;;;;;;5012665;28;20358;-86
2022/07/05 13:02:37;;;;;;;1.70;0.90;;;;;;;;;;5013137;28;20269;-86
2022/07/05 13:05:04;;;;;;;1.75;0.70;;;;;;;;;;5012277;28;20814;-86
2022/07/05 13:07:33;;;;;;;0.98;0.85;;;;;;;;;;5012982;28;20206;-85
2022/07/05 13:10:14;;;;;;;1.02;0.80;;;;;;;;;;5012528;28;20264;-86
2022/07/05 13:12:41;;;;;;;1.60;0.93;;;;;;;;;;5012823;28;20235;-86
2022/07/05 13:15:09;;;;;;;1.20;0.80;;;;;;;;;;5012478;28;20247;-85
2022/07/05 13:17:36;;;;;;;1.33;1.02;;;;;;;;;;5012757;28;20226;-85
2022/07/05 13:20:03;;;;;;;2.10;0.85;;;;;;;;;;5012609;28;20263;-86
2022/07/05 13:22:30;;;;;;;1.70;1.17;;;;;;;;;;5012949;28;20317;-85
2022/07/05 13:24:58;;;;;;;0.65;0.65;;;;;;;;;;5012108;28;20234;-85
2022/07/05 13:27:26;;;;;;;2.47;0.77;;;;;;;;;;5013146;28;20209;-85
2022/07/05 13:29:53;;;;;;;0.77;0.77;;;;;;;;;;5012269;28;20235;-85
2022/07/05 13:32:21;;;;;;;1.83;0.80;;;;;;;;;;5012501;28;20711;-84
2022/07/05 13:34:48;;;;;;;1.60;0.90;;;;;;;;;;5011599;28;20234;-85
2022/07/05 13:37:16;;;;;;;1.30;0.60;;;;;;;;;;5013004;28;20231;-85
2022/07/05 13:39:43;;;;;;;2.05;0.80;;;;;;;;;;5012149;28;20238;-85
2022/07/05 13:42:11;;;;;;;1.65;0.95;;;;;;;;;;5012612;28;20626;-86
2022/07/05 13:44:38;;;;;;;1.17;0.60;;;;;;;;;;5011794;28;20235;-86
2022/07/05 13:47:06;;;;;;;1.67;0.80;;;;;;;;;;5012482;28;20552;-85
2022/07/05 13:49:34;;;;;;;1.67;0.98;;;;;;;;;;5011885;28;20241;-84
2022/07/05 13:52:01;;;;;;;2.05;0.70;;;;;;;;;;5012015;28;20215;-86
2022/07/05 13:54:28;;;;;;;0.70;0.70;;;;;;;;;;5011688;28;20274;-85
2022/07/05 13:56:55;;;;;;;1.30;0.45;;;;;;;;;;5012772;28;20231;-85
2022/07/05 13:59:24;;;;;;;3.97;0.98;;;;;;;;;;5012553;28;20261;-85
2022/07/05 14:01:51;;;;;;;0.90;0.80;;;;;;;;;;5030532;28;20207;-85
2022/07/05 14:04:18;;;;;;;2.00;1.10;;;;;;;;;;5031680;28;20235;-85
2022/07/05 14:06:46;;;;;;;0.60;0.57;;;;;;;;;;5031930;28;20213;-85
2022/07/05 14:09:13;;;;;;;1.50;1.00;;;;;;;;;;5033017;28;20230;-86
2022/07/05 14:11:40;;;;;;;0.95;0.60;;;;;;;;;;5033690;28;20210;-85
2022/07/05 14:14:07;;;;;;;1.00;0.75;;;;;;;;;;5034428;28;20325;-85
2022/07/05 14:16:36;;;;;;;0.90;0.75;;;;;;;;;;5032432;28;20206;-86
2022/07/05 14:19:03;;;;;;;2.40;0.70;;;;;;;;;;5031608;28;20234;-86
2022/07/05 14:21:30;;;;;;;0.98;0.77;;;;;;;;;;5032537;28;20210;-86
2022/07/05 14:23:58;;;;;;;1.05;0.93;;;;;;;;;;5031479;28;20698;-86
2022/07/05 14:26:27;;;;;;;2.85;0.93;;;;;;;;;;5032041;28;20207;-85
2022/07/05 14:28:54;;;;;;;2.05;1.02;;;;;;;;;;5031451;28;20650;-85
2022/07/05 14:31:21;;;;;;;1.38;0.95;;;;;;;;;;5031864;28;20209;-85
2022/07/05 14:33:49;;;;;;;0.90;0.90;;;;;;;;;;5034484;28;20241;-85
2022/07/05 14:36:19;;;;;;;0.95;0.90;;;;;;;;;;5036036;28;20223;-85
2022/07/05 14:38:46;;;;;;;1.95;0.80;;;;;;;;;;5035596;28;20292;-85
2022/07/05 14:41:13;;;;;;;1.35;0.80;;;;;;;;;;5035824;28;20207;-86
2022/07/05 14:43:40;;;;;;;0.70;0.70;;;;;;;;;;5034898;28;20241;-86
2022/07/05 14:46:11;;;;;;;0.90;0.90;;;;;;;;;;5035352;28;20218;-86
2022/07/05 14:48:38;;;;;;;1.83;0.65;;;;;;;;;;5036625;28;20234;-86
2022/07/05 14:51:07;;;;;;;0.85;0.85;;;;;;;;;;5035235;28;20613;-85
2022/07/05 14:53:34;;;;;;;0.70;0.60;;;;;;;;;;5034793;28;20242;-85
2022/07/05 14:56:01;;;;;;;2.38;1.00;;;;;;;;;;5035187;28;20211;-85
2022/07/05 14:58:31;;;;;;;1.55;0.75;;;;;;;;;;5034706;28;20317;-85
2022/07/05 15:00:58;;;;;;;2.45;0.73;;;;;;;;;;5038092;28;20202;-85
2022/07/05 15:03:25;;;;;;;0.75;0.70;;;;;;;;;;5034677;28;20235;-85
2022/07/05 15:05:53;;;;;;;0.68;0.68;;;;;;;;;;5035200;28;20202;-84